createdAt,value
2023-04-18T00:07:59.723Z,102385.00
2023-04-18T00:18:04.192Z,102381.53
2023-04-18T00:28:22.641Z,102377.97
2023-04-18T00:38:34.841Z,102371.94
2023-04-18T00:48:36.666Z,102372.81
2023-04-18T00:58:51.844Z,102365.00
2023-04-18T01:08:55.738Z,102359.72
2023-04-18T01:18:58.277Z,102358.88
2023-04-18T01:29:01.687Z,102362.38
2023-04-18T01:39:04.943Z,102351.91
2023-04-18T01:49:08.484Z,102348.38
2023-04-18T01:59:13.029Z,102344.06
2023-04-18T02:09:14.380Z,102342.34
2023-04-18T02:19:17.589Z,102344.06
2023-04-18T02:29:19.212Z,102336.22
2023-04-18T02:39:20.678Z,102332.72
2023-04-18T02:49:28.095Z,102328.34
2023-04-18T03:20:00.873Z,102330.16
2023-04-18T03:30:03.677Z,102335.41
2023-04-18T03:50:22.194Z,102334.59
2023-04-18T04:00:32.409Z,102345.03
2023-04-18T04:10:37.200Z,102342.53
2023-04-18T04:20:38.543Z,102336.38
2023-04-18T04:30:44.458Z,102352.09
2023-04-18T04:40:55.962Z,102351.22
2023-04-18T04:51:22.378Z,102352.84
2023-04-18T05:01:21.818Z,102346.81
2023-04-18T05:11:23.219Z,102348.63
2023-04-18T05:21:24.531Z,102357.31
2023-04-18T05:31:25.932Z,102363.97
2023-04-18T05:41:37.406Z,102372.47
2023-04-18T05:51:38.662Z,102384.63
2023-04-18T06:01:41.326Z,102394.09
2023-04-18T06:11:42.801Z,102393.38
2023-04-18T06:21:44.164Z,102401.94
2023-04-18T06:31:47.326Z,102403.75
2023-04-18T06:41:51.610Z,102403.72
2023-04-18T06:51:53.017Z,102414.22
2023-04-18T07:01:54.669Z,102418.56
2023-04-18T07:11:57.951Z,102424.69
2023-04-18T07:21:59.370Z,102433.47
2023-04-18T07:32:02.654Z,102435.25
2023-04-18T07:42:03.912Z,102432.34
2023-04-18T07:52:05.186Z,102435.81
2023-04-18T08:02:06.643Z,102446.09
2023-04-18T08:12:08.030Z,102451.31
2023-04-18T08:22:09.369Z,102449.66
2023-04-18T08:32:10.882Z,102459.38
2023-04-18T08:42:12.224Z,102451.44
2023-04-18T08:52:13.531Z,102453.22
2023-04-18T09:02:15.046Z,102449.63
2023-04-18T09:12:16.360Z,102431.25
2023-04-18T09:22:17.630Z,102432.19
2023-04-18T09:32:18.995Z,102438.34
2023-04-18T09:42:20.293Z,102427.06
2023-04-18T09:52:23.918Z,102428.72
2023-04-18T10:02:25.268Z,102420.81
2023-04-18T10:12:26.577Z,102418.34
2023-04-18T10:22:27.846Z,102427.94
2023-04-18T10:32:29.153Z,102425.41
2023-04-18T10:42:32.812Z,102434.75
2023-04-18T10:52:34.115Z,102422.59
2023-04-18T11:02:35.737Z,102426.06
2023-04-18T11:12:37.095Z,102414.72
2023-04-18T11:22:38.751Z,102424.28
2023-04-18T11:32:40.120Z,102413.81
2023-04-18T11:42:41.464Z,102417.34
2023-04-18T11:52:42.963Z,102421.66
2023-04-18T12:02:51.791Z,102414.72
2023-04-18T12:13:01.570Z,102417.19
2023-04-18T12:23:05.801Z,102413.59
2023-04-18T12:33:13.833Z,102412.91
2023-04-18T12:43:22.817Z,102411.09
2023-04-18T12:53:30.710Z,102399.84
2023-04-18T13:03:39.059Z,102406.84
2023-04-18T13:13:50.922Z,102411.19
2023-04-18T13:44:48.068Z,102401.56
2023-04-18T13:54:49.544Z,102399.13
2023-04-18T14:04:55.667Z,102403.44
2023-04-18T14:14:58.781Z,102395.53
2023-04-18T14:25:12.201Z,102381.59
2023-04-18T14:35:26.915Z,102379.88
2023-04-18T14:45:38.967Z,102379.03
2023-04-18T14:55:43.996Z,102374.63
2023-04-18T15:05:45.469Z,102370.41
2023-04-18T15:15:55.640Z,102374.84
2023-04-18T15:25:57.651Z,102351.28
2023-04-18T15:36:10.028Z,102353.75
2023-04-18T15:46:19.569Z,102338.00
2023-04-18T15:56:31.227Z,102342.47
2023-04-18T16:16:54.792Z,102342.47
2023-04-18T16:26:56.135Z,102341.66
2023-04-18T16:36:57.629Z,102338.19
2023-04-18T16:47:08.691Z,102333.81
2023-04-18T16:57:15.748Z,102335.63
2023-04-18T17:07:26.685Z,102332.13
2023-04-18T17:17:34.817Z,102330.47
2023-04-18T17:27:57.649Z,102321.72
2023-04-18T17:48:15.079Z,102329.63
2023-04-18T17:58:51.310Z,102334.88
2023-04-18T18:29:43.467Z,102348.06
2023-04-18T18:39:45.245Z,102340.28
2023-04-18T18:49:48.002Z,102361.28
2023-04-18T18:59:49.348Z,102369.97
2023-04-18T19:10:01.375Z,102377.06
2023-04-18T19:30:18.373Z,102391.00
2023-04-18T19:40:19.862Z,102384.09
2023-04-18T19:50:21.289Z,102398.03
2023-04-18T20:00:22.658Z,102393.69
2023-04-18T20:10:28.618Z,102410.28
2023-04-18T20:20:35.070Z,102415.47
2023-04-18T20:30:39.433Z,102409.28
2023-04-18T20:40:43.764Z,102424.19
2023-04-18T20:50:45.229Z,102420.69
2023-04-18T21:00:46.589Z,102414.56
2023-04-18T21:10:48.021Z,102425.09
2023-04-18T21:20:49.396Z,102432.94
2023-04-18T21:30:50.776Z,102438.22
2023-04-18T21:40:52.138Z,102437.34
2023-04-18T21:50:53.427Z,102439.97
2023-04-18T22:00:54.902Z,102423.41
2023-04-18T22:10:56.337Z,102441.72
2023-04-18T22:20:57.798Z,102429.56
2023-04-18T22:30:59.192Z,102431.31
2023-04-18T22:41:02.736Z,102433.03
2023-04-18T22:51:04.286Z,102446.16
2023-04-18T23:01:07.231Z,102436.56
2023-04-18T23:11:10.392Z,102440.09
2023-04-18T23:21:13.717Z,102444.44
2023-04-18T23:31:15.105Z,102442.69
2023-04-18T23:41:16.408Z,102448.84
2023-04-18T23:51:17.784Z,102444.41
